createdAt,value
2022-11-27T00:01:37.582Z,29.83
2022-11-27T00:04:07.110Z,42.17
2022-11-27T00:06:37.154Z,29.00
2022-11-27T00:09:09.471Z,42.00
2022-11-27T00:11:39.508Z,37.67
2022-11-27T00:14:08.618Z,30.90
2022-11-27T00:16:37.250Z,30.87
2022-11-27T00:19:06.220Z,29.17
2022-11-27T00:21:36.632Z,30.27
2022-11-27T00:24:08.533Z,30.43
2022-11-27T00:26:38.439Z,42.40
2022-11-27T00:29:07.855Z,31.90
2022-11-27T00:31:37.889Z,34.70
2022-11-27T00:34:09.280Z,39.70
2022-11-27T00:36:38.505Z,39.50
2022-11-27T00:39:08.973Z,41.83
2022-11-27T00:41:37.866Z,40.37
2022-11-27T00:44:06.967Z,24.90
2022-11-27T00:46:36.872Z,41.70
2022-11-27T00:49:08.090Z,33.90
2022-11-27T00:51:37.316Z,37.10
2022-11-27T00:54:08.815Z,29.73
2022-11-27T00:56:44.887Z,26.07
2022-11-27T00:59:25.311Z,35.67
2022-11-27T01:02:05.232Z,38.20
2022-11-27T01:04:42.012Z,35.73
2022-11-27T01:07:17.109Z,33.37
2022-11-27T01:10:00.608Z,32.37
2022-11-27T01:12:34.519Z,34.80
2022-11-27T01:15:06.342Z,32.60
2022-11-27T01:17:43.692Z,32.17
2022-11-27T01:20:15.960Z,30.53
2022-11-27T01:22:57.719Z,27.60
2022-11-27T01:25:32.377Z,27.47
2022-11-27T01:28:13.011Z,33.50
2022-11-27T01:30:48.288Z,29.80
2022-11-27T01:33:23.358Z,36.17
2022-11-27T01:36:09.900Z,38.53
2022-11-27T01:38:41.086Z,31.00
2022-11-27T01:41:26.635Z,36.07
2022-11-27T01:44:02.686Z,27.43
2022-11-27T01:46:44.169Z,28.10
2022-11-27T01:49:27.999Z,27.83
2022-11-27T01:52:04.104Z,32.27
2022-11-27T01:54:39.188Z,28.90
2022-11-27T01:57:26.812Z,37.57
2022-11-27T02:00:02.702Z,41.07
2022-11-27T02:02:39.590Z,44.80
2022-11-27T02:05:17.896Z,38.67
2022-11-27T02:07:58.774Z,50.57
2022-11-27T02:10:43.787Z,30.73
2022-11-27T02:13:21.283Z,41.73
2022-11-27T02:16:19.426Z,24.90
2022-11-27T02:19:04.062Z,30.70
2022-11-27T02:21:45.047Z,25.90
2022-11-27T02:24:45.206Z,27.63
2022-11-27T02:27:44.719Z,23.97
2022-11-27T02:30:21.335Z,46.07
2022-11-27T02:32:56.711Z,31.30
2022-11-27T02:35:33.791Z,34.30
2022-11-27T02:38:08.465Z,24.20
2022-11-27T02:40:42.103Z,22.07
2022-11-27T02:43:13.915Z,35.60
2022-11-27T02:45:57.265Z,24.57
2022-11-27T02:48:35.002Z,39.73
2022-11-27T02:51:11.337Z,31.43
2022-11-27T02:53:44.515Z,36.60
2022-11-27T02:56:17.871Z,32.43
2022-11-27T02:58:49.385Z,42.83
2022-11-27T03:01:22.463Z,31.57
2022-11-27T03:03:54.422Z,30.83
2022-11-27T03:06:31.448Z,30.40
2022-11-27T03:09:06.679Z,25.97
2022-11-27T03:11:35.628Z,26.90
2022-11-27T03:14:09.309Z,33.37
2022-11-27T03:16:49.507Z,32.50
2022-11-27T03:19:21.990Z,22.50
2022-11-27T03:21:54.015Z,23.63
2022-11-27T03:24:24.913Z,28.43
2022-11-27T03:26:54.371Z,26.80
2022-11-27T03:29:26.949Z,32.00
2022-11-27T03:31:58.142Z,19.53
2022-11-27T03:34:31.753Z,21.70
2022-11-27T03:37:12.241Z,22.47
2022-11-27T03:39:42.923Z,23.80
2022-11-27T03:42:21.166Z,23.60
2022-11-27T03:45:02.789Z,21.77
2022-11-27T03:47:49.333Z,23.03
2022-11-27T03:50:26.185Z,20.60
2022-11-27T03:53:08.245Z,21.70
2022-11-27T03:55:51.075Z,30.47
2022-11-27T03:58:32.873Z,28.37
2022-11-27T04:01:07.400Z,24.50
2022-11-27T04:03:38.070Z,19.07
2022-11-27T04:06:07.738Z,24.10
2022-11-27T04:08:52.882Z,21.57
2022-11-27T04:11:24.772Z,22.80
2022-11-27T04:13:53.587Z,22.63
2022-11-27T04:16:22.573Z,18.03
2022-11-27T04:18:55.922Z,30.90
2022-11-27T04:21:24.814Z,23.60
2022-11-27T04:23:53.773Z,23.60
2022-11-27T04:26:23.618Z,20.87
2022-11-27T04:28:52.323Z,21.27
2022-11-27T04:31:21.023Z,20.53
2022-11-27T04:33:51.026Z,33.63
2022-11-27T04:36:19.681Z,26.63
2022-11-27T04:38:48.449Z,18.60
2022-11-27T04:41:17.246Z,19.23
2022-11-27T04:43:45.868Z,31.87
2022-11-27T04:46:14.750Z,22.63
2022-11-27T04:48:43.449Z,29.60
2022-11-27T04:51:13.583Z,24.73
2022-11-27T04:53:42.310Z,18.80
2022-11-27T04:56:11.013Z,21.30
2022-11-27T04:58:39.649Z,11.63
2022-11-27T05:01:10.119Z,30.43
2022-11-27T05:03:38.957Z,26.73
2022-11-27T05:06:07.866Z,31.23
2022-11-27T05:08:38.006Z,40.37
2022-11-27T05:11:09.555Z,24.30
2022-11-27T05:13:38.471Z,21.10
2022-11-27T05:16:08.477Z,21.30
2022-11-27T05:18:37.569Z,19.93
2022-11-27T05:21:08.212Z,16.73
2022-11-27T05:23:38.698Z,22.20
2022-11-27T05:26:07.594Z,21.73
2022-11-27T05:28:36.376Z,23.87
2022-11-27T05:31:05.199Z,19.53
2022-11-27T05:33:33.890Z,21.87
2022-11-27T05:36:02.537Z,16.57
2022-11-27T05:38:31.415Z,28.37
2022-11-27T05:41:01.683Z,29.97
2022-11-27T05:43:30.470Z,26.00
2022-11-27T05:45:59.465Z,21.07
2022-11-27T05:48:28.194Z,20.40
2022-11-27T05:50:57.345Z,20.10
2022-11-27T05:53:26.125Z,27.70
2022-11-27T05:55:55.026Z,22.67
2022-11-27T05:58:25.249Z,36.83
2022-11-27T06:00:54.509Z,26.73
2022-11-27T06:03:23.334Z,31.93
2022-11-27T06:05:52.151Z,27.73
2022-11-27T06:08:20.857Z,29.07
2022-11-27T06:10:50.166Z,23.80
2022-11-27T06:13:19.113Z,23.60
2022-11-27T06:15:49.398Z,21.00
2022-11-27T06:18:18.301Z,28.03
2022-11-27T06:20:52.737Z,24.60
2022-11-27T06:23:22.570Z,27.73
2022-11-27T06:25:51.399Z,30.00
2022-11-27T06:28:20.313Z,33.63
2022-11-27T06:30:50.508Z,29.80
2022-11-27T06:33:19.117Z,35.30
2022-11-27T06:35:47.721Z,22.80
2022-11-27T06:38:16.306Z,29.70
2022-11-27T06:40:45.065Z,22.27
2022-11-27T06:43:13.888Z,28.07
2022-11-27T06:45:42.566Z,30.70
2022-11-27T06:48:12.885Z,43.63
2022-11-27T06:50:41.672Z,27.93
2022-11-27T06:53:10.345Z,27.83
2022-11-27T06:55:39.987Z,30.80
2022-11-27T06:58:08.595Z,35.63
2022-11-27T07:00:37.415Z,36.17
2022-11-27T07:03:06.051Z,37.73
2022-11-27T07:05:36.864Z,46.27
2022-11-27T07:08:06.016Z,44.57
2022-11-27T07:10:36.063Z,38.70
2022-11-27T07:13:04.751Z,50.00
2022-11-27T07:15:34.699Z,25.27
2022-11-27T07:18:03.435Z,51.67
2022-11-27T07:20:32.047Z,94.57
2022-11-27T07:23:02.042Z,61.43
2022-11-27T07:25:30.820Z,48.93
2022-11-27T07:27:59.417Z,46.63
2022-11-27T07:30:28.233Z,55.10
2022-11-27T07:32:57.110Z,101.37
2022-11-27T07:35:25.908Z,144.67
2022-11-27T07:37:54.557Z,73.70
2022-11-27T07:40:24.721Z,91.30
2022-11-27T07:42:53.376Z,123.57
2022-11-27T07:45:22.041Z,84.43
2022-11-27T07:47:50.655Z,152.63
2022-11-27T07:50:19.266Z,108.23
2022-11-27T07:52:48.051Z,92.43
2022-11-27T07:55:16.702Z,92.17
2022-11-27T07:57:46.748Z,106.10
2022-11-27T08:00:16.317Z,150.30
2022-11-27T08:02:45.064Z,135.63
2022-11-27T08:05:13.863Z,129.70
2022-11-27T08:07:42.559Z,121.07
2022-11-27T08:10:11.476Z,218.73
2022-11-27T08:12:40.210Z,173.67
2022-11-27T08:15:11.908Z,166.43
2022-11-27T08:17:41.269Z,90.30
2022-11-27T08:20:10.218Z,140.63
2022-11-27T08:22:39.098Z,139.47
2022-11-27T08:25:08.546Z,142.00
2022-11-27T08:27:37.323Z,73.23
2022-11-27T08:30:07.202Z,148.30
2022-11-27T08:32:40.334Z,152.40
2022-11-27T08:35:09.182Z,73.90
2022-11-27T08:37:38.137Z,153.27
2022-11-27T08:40:08.710Z,89.53
2022-11-27T08:42:38.053Z,87.80
2022-11-27T08:45:08.554Z,82.70
2022-11-27T08:47:40.033Z,158.30
2022-11-27T08:50:11.419Z,144.77
2022-11-27T08:52:41.433Z,101.57
2022-11-27T08:55:10.749Z,147.37
2022-11-27T08:57:39.346Z,116.17
2022-11-27T09:00:09.261Z,62.60
2022-11-27T09:02:39.290Z,96.53
2022-11-27T09:05:08.599Z,70.20
2022-11-27T09:07:37.301Z,25.53
2022-11-27T09:10:06.988Z,38.40
2022-11-27T09:12:38.204Z,129.50
2022-11-27T09:15:11.448Z,46.40
2022-11-27T09:17:41.456Z,81.00
2022-11-27T09:20:11.095Z,73.13
2022-11-27T09:22:39.676Z,54.17
2022-11-27T09:25:09.657Z,54.33
2022-11-27T09:27:39.112Z,24.90
2022-11-27T09:30:09.778Z,19.83
2022-11-27T09:32:38.427Z,32.07
2022-11-27T09:35:09.224Z,25.20
2022-11-27T09:37:38.103Z,17.77
2022-11-27T09:40:08.138Z,18.90
2022-11-27T09:42:41.757Z,18.83
2022-11-27T09:45:16.276Z,22.53
2022-11-27T09:47:49.988Z,17.20
2022-11-27T09:50:24.848Z,41.63
2022-11-27T09:52:57.719Z,19.27
2022-11-27T09:55:32.676Z,14.03
2022-11-27T09:58:06.767Z,25.63
2022-11-27T10:00:35.693Z,24.73
2022-11-27T10:03:04.479Z,21.50
2022-11-27T10:05:43.319Z,25.87
2022-11-27T10:08:27.550Z,25.47
2022-11-27T10:11:11.819Z,25.93
2022-11-27T10:13:58.233Z,39.00
2022-11-27T10:16:33.508Z,27.37
2022-11-27T10:19:09.808Z,34.80
2022-11-27T10:21:45.704Z,39.67
2022-11-27T10:24:21.543Z,34.83
2022-11-27T10:26:53.902Z,33.07
2022-11-27T10:29:34.644Z,32.23
2022-11-27T10:32:07.614Z,30.43
2022-11-27T10:34:41.626Z,25.33
2022-11-27T10:37:18.714Z,27.10
2022-11-27T10:39:50.804Z,31.07
2022-11-27T10:42:26.110Z,38.43
2022-11-27T10:45:00.710Z,38.43
2022-11-27T10:47:33.689Z,31.93
2022-11-27T10:50:03.240Z,30.33
2022-11-27T10:52:34.534Z,29.90
2022-11-27T10:55:11.465Z,35.43
2022-11-27T10:57:59.814Z,36.93
2022-11-27T11:00:28.858Z,32.40
2022-11-27T11:03:05.218Z,36.07
2022-11-27T11:05:51.028Z,39.33
2022-11-27T11:08:26.480Z,30.70
2022-11-27T11:11:00.834Z,32.13
2022-11-27T11:13:30.417Z,32.10
2022-11-27T11:16:01.898Z,48.43
2022-11-27T11:18:32.492Z,26.30
2022-11-27T11:21:03.157Z,38.90
2022-11-27T11:23:35.850Z,31.20
2022-11-27T11:26:14.516Z,35.07
2022-11-27T11:28:50.951Z,27.63
2022-11-27T11:31:22.995Z,46.17
2022-11-27T11:33:55.225Z,32.30
2022-11-27T11:36:24.034Z,30.83
2022-11-27T11:38:54.746Z,26.07
2022-11-27T11:41:24.279Z,32.23
2022-11-27T11:43:58.363Z,29.10
2022-11-27T11:46:29.851Z,24.93
2022-11-27T11:49:01.839Z,27.30
2022-11-27T11:51:56.415Z,26.20
2022-11-27T11:54:44.694Z,35.30
2022-11-27T11:57:36.022Z,29.37
2022-11-27T12:00:10.847Z,33.10
2022-11-27T12:02:56.527Z,29.30
2022-11-27T12:05:33.012Z,28.63
2022-11-27T12:08:23.369Z,35.07
2022-11-27T12:11:03.643Z,25.60
2022-11-27T12:13:46.749Z,23.90
2022-11-27T12:16:24.933Z,27.17
2022-11-27T12:19:12.061Z,32.33
2022-11-27T12:21:50.245Z,35.13
2022-11-27T12:24:32.341Z,29.10
2022-11-27T12:27:16.148Z,26.73
2022-11-27T12:30:06.487Z,23.83
2022-11-27T12:32:59.525Z,20.73
2022-11-27T12:35:34.656Z,21.17
2022-11-27T12:38:25.327Z,25.50
2022-11-27T12:41:08.028Z,21.93
2022-11-27T12:43:43.682Z,23.80
2022-11-27T12:46:17.222Z,24.87
2022-11-27T12:48:51.037Z,24.47
2022-11-27T12:51:25.403Z,20.40
2022-11-27T12:54:16.262Z,25.63
2022-11-27T12:56:52.257Z,14.27
2022-11-27T12:59:37.441Z,16.00
2022-11-27T13:02:53.689Z,20.27
2022-11-27T13:05:36.082Z,12.43
2022-11-27T13:08:26.692Z,10.33
2022-11-27T13:11:15.265Z,7.90
2022-11-27T13:13:53.395Z,11.27
2022-11-27T13:16:27.866Z,61.73
2022-11-27T13:19:19.059Z,12.37
2022-11-27T13:21:56.542Z,11.37
2022-11-27T13:24:41.383Z,11.97
2022-11-27T13:27:20.184Z,11.10
2022-11-27T13:30:08.599Z,11.43
2022-11-27T13:33:03.562Z,14.70
2022-11-27T13:35:53.143Z,11.07
2022-11-27T13:38:29.892Z,7.63
2022-11-27T13:48:12.932Z,10.67
2022-11-27T13:51:27.823Z,16.43
2022-11-27T13:54:27.628Z,12.83
2022-11-27T13:58:02.853Z,11.10
2022-11-27T14:00:49.111Z,8.73
2022-11-27T14:03:40.111Z,11.97
2022-11-27T14:06:35.065Z,9.80
2022-11-27T14:09:07.308Z,10.63
2022-11-27T14:11:40.337Z,10.77
2022-11-27T14:14:19.642Z,9.37
2022-11-27T14:16:59.512Z,21.33
2022-11-27T14:19:35.089Z,20.37
2022-11-27T14:22:15.004Z,11.13
2022-11-27T14:24:46.684Z,22.80
2022-11-27T14:27:21.416Z,17.03
2022-11-27T14:29:50.962Z,12.00
2022-11-27T14:32:21.377Z,16.53
2022-11-27T14:34:50.620Z,15.33
2022-11-27T14:37:24.970Z,15.13
2022-11-27T14:39:55.611Z,13.77
2022-11-27T14:42:29.103Z,23.47
2022-11-27T14:45:06.893Z,20.63
2022-11-27T14:47:36.551Z,43.33
2022-11-27T14:50:07.398Z,38.20
2022-11-27T14:52:36.193Z,12.23
2022-11-27T14:55:09.575Z,16.70
2022-11-27T14:57:38.250Z,9.27
2022-11-27T15:00:18.429Z,13.70
2022-11-27T15:02:47.685Z,19.00
2022-11-27T15:05:21.956Z,9.80
2022-11-27T15:07:53.778Z,15.57
2022-11-27T15:10:33.351Z,13.70
2022-11-27T15:13:03.852Z,14.70
2022-11-27T15:15:37.960Z,18.10
2022-11-27T15:18:09.510Z,19.60
2022-11-27T15:20:42.296Z,13.00
2022-11-27T15:23:18.690Z,19.93
2022-11-27T15:25:51.313Z,22.63
2022-11-27T15:28:34.990Z,15.40
2022-11-27T15:31:05.370Z,10.07
2022-11-27T15:33:35.166Z,19.93
2022-11-27T15:36:22.466Z,21.67
2022-11-27T15:38:54.085Z,25.63
2022-11-27T15:41:28.905Z,19.73
2022-11-27T15:43:57.816Z,18.10
2022-11-27T15:46:31.173Z,12.93
2022-11-27T15:49:00.467Z,18.70
2022-11-27T15:51:30.197Z,13.60
2022-11-27T15:53:58.868Z,20.30
2022-11-27T15:56:28.980Z,26.80
2022-11-27T15:58:57.677Z,19.43
2022-11-27T16:01:26.355Z,18.23
2022-11-27T16:03:55.786Z,17.60
2022-11-27T16:06:24.778Z,15.47
2022-11-27T16:08:56.210Z,16.90
2022-11-27T16:11:25.894Z,16.87
2022-11-27T16:13:55.936Z,17.87
2022-11-27T16:16:25.597Z,19.60
2022-11-27T16:18:57.038Z,12.73
2022-11-27T16:21:29.641Z,22.63
2022-11-27T16:24:00.172Z,23.50
2022-11-27T16:26:30.008Z,13.33
2022-11-27T16:29:00.297Z,15.40
2022-11-27T16:31:29.462Z,20.20
2022-11-27T16:33:58.189Z,16.70
2022-11-27T16:36:26.813Z,21.33
2022-11-27T16:38:56.117Z,23.37
2022-11-27T16:41:25.351Z,27.90
2022-11-27T16:43:55.839Z,22.40
2022-11-27T16:46:27.538Z,32.10
2022-11-27T16:48:57.050Z,24.93
2022-11-27T16:51:28.360Z,22.57
2022-11-27T16:53:59.049Z,24.50
2022-11-27T16:56:29.977Z,22.23
2022-11-27T16:59:03.054Z,25.83
2022-11-27T17:01:36.071Z,29.80
2022-11-27T17:04:08.811Z,19.77
2022-11-27T17:06:39.180Z,27.60
2022-11-27T17:09:09.104Z,26.87
2022-11-27T17:11:41.803Z,23.33
2022-11-27T17:14:11.582Z,25.43
2022-11-27T17:16:43.126Z,40.03
2022-11-27T17:19:14.154Z,22.93
2022-11-27T17:21:43.168Z,19.90
2022-11-27T17:24:15.449Z,32.07
2022-11-27T17:26:45.995Z,21.83
2022-11-27T17:29:15.950Z,26.10
2022-11-27T17:31:46.096Z,23.60
2022-11-27T17:34:16.735Z,33.77
2022-11-27T17:36:46.136Z,22.30
2022-11-27T17:39:16.113Z,33.63
2022-11-27T17:41:45.717Z,33.43
2022-11-27T17:44:14.947Z,25.87
2022-11-27T17:46:49.926Z,24.20
2022-11-27T17:49:19.400Z,25.50
2022-11-27T17:51:48.043Z,25.13
2022-11-27T17:54:16.639Z,24.47
2022-11-27T17:56:51.087Z,32.70
2022-11-27T17:59:19.782Z,27.03
2022-11-27T18:01:53.294Z,24.90
2022-11-27T18:04:22.142Z,33.77
2022-11-27T18:06:50.907Z,30.40
2022-11-27T18:09:19.840Z,36.37
2022-11-27T18:11:48.530Z,28.23
2022-11-27T18:14:17.481Z,32.80
2022-11-27T18:16:46.190Z,24.93
2022-11-27T18:19:16.476Z,31.97
2022-11-27T18:21:45.099Z,28.50
2022-11-27T18:24:29.198Z,32.03
2022-11-27T18:27:13.278Z,36.33
2022-11-27T18:29:44.643Z,38.47
2022-11-27T18:32:15.383Z,35.57
2022-11-27T18:34:45.866Z,51.73
2022-11-27T18:37:14.938Z,69.33
2022-11-27T18:39:45.432Z,49.73
2022-11-27T18:42:14.504Z,51.90
2022-11-27T18:44:45.108Z,41.30
2022-11-27T18:47:14.658Z,42.77
2022-11-27T18:49:45.185Z,41.63
2022-11-27T18:52:13.985Z,38.30
2022-11-27T18:54:42.675Z,28.80
2022-11-27T18:57:11.518Z,30.53
2022-11-27T18:59:41.008Z,40.07
2022-11-27T19:02:10.984Z,45.63
2022-11-27T19:04:40.070Z,36.40
2022-11-27T19:07:10.337Z,43.77
2022-11-27T19:09:39.568Z,35.00
2022-11-27T19:12:08.505Z,36.73
2022-11-27T19:14:37.266Z,32.07
2022-11-27T19:17:05.941Z,37.97
2022-11-27T19:22:25.753Z,35.83
2022-11-27T19:24:54.396Z,35.37
2022-11-27T19:27:23.071Z,41.23
2022-11-27T19:29:51.730Z,35.87
2022-11-27T19:32:20.418Z,41.93
2022-11-27T19:34:51.407Z,43.30
2022-11-27T19:37:33.600Z,39.13
2022-11-27T19:40:06.537Z,37.20
2022-11-27T19:42:35.469Z,29.50
2022-11-27T19:45:04.441Z,35.47
2022-11-27T19:47:33.112Z,43.50
2022-11-27T19:50:01.869Z,30.17
2022-11-27T19:52:30.525Z,35.43
2022-11-27T19:54:59.180Z,41.10
2022-11-27T19:57:29.583Z,42.53
2022-11-27T19:59:58.406Z,36.87
2022-11-27T20:02:27.366Z,37.33
2022-11-27T20:04:56.084Z,45.47
2022-11-27T20:07:24.865Z,31.23
2022-11-27T20:09:53.667Z,39.03
2022-11-27T20:12:22.366Z,32.83
2022-11-27T20:14:52.380Z,44.27
2022-11-27T20:17:21.062Z,31.27
2022-11-27T20:19:49.690Z,28.30
2022-11-27T20:22:18.626Z,31.63
2022-11-27T20:25:11.179Z,39.77
2022-11-27T20:27:36.058Z,59.77
2022-11-27T20:30:07.164Z,47.50
2022-11-27T20:32:35.837Z,32.87
2022-11-27T20:35:04.611Z,36.73
2022-11-27T20:37:34.041Z,36.10
2022-11-27T20:40:02.772Z,40.83
2022-11-27T20:42:31.440Z,34.17
2022-11-27T20:45:04.706Z,42.50
2022-11-27T20:47:35.755Z,47.23
2022-11-27T20:50:04.599Z,44.90
2022-11-27T20:52:33.272Z,50.30
2022-11-27T20:55:01.960Z,35.20
2022-11-27T20:57:30.641Z,36.63
2022-11-27T20:59:59.271Z,48.10
2022-11-27T21:02:28.254Z,48.70
2022-11-27T21:04:58.429Z,52.80
2022-11-27T21:07:27.194Z,51.27
2022-11-27T21:09:56.374Z,33.23
2022-11-27T21:12:25.034Z,45.23
2022-11-27T21:14:53.714Z,49.10
2022-11-27T21:17:22.390Z,56.90
2022-11-27T21:19:51.057Z,42.27
2022-11-27T21:22:21.378Z,42.53
2022-11-27T21:24:51.881Z,44.53
2022-11-27T21:27:20.568Z,43.23
2022-11-27T21:29:49.245Z,64.33
2022-11-27T21:32:18.288Z,44.43
2022-11-27T21:34:47.174Z,49.40
2022-11-27T21:37:16.231Z,50.67
2022-11-27T21:39:46.299Z,46.67
2022-11-27T21:42:14.924Z,52.07
2022-11-27T21:44:43.728Z,43.00
2022-11-27T21:47:12.694Z,56.83
2022-11-27T21:49:41.769Z,57.73
2022-11-27T21:52:10.477Z,58.63
2022-11-27T21:54:39.437Z,79.67
2022-11-27T21:57:09.601Z,68.60
2022-11-27T21:59:38.344Z,52.73
2022-11-27T22:02:07.565Z,64.70
2022-11-27T22:04:36.364Z,54.53
2022-11-27T22:07:05.061Z,65.70
2022-11-27T22:09:34.387Z,56.13
2022-11-27T22:12:03.090Z,63.73
2022-11-27T22:14:33.666Z,65.07
2022-11-27T22:17:02.437Z,49.23
2022-11-27T22:19:31.087Z,51.37
2022-11-27T22:21:59.785Z,79.50
2022-11-27T22:24:28.468Z,67.43
2022-11-27T22:26:57.090Z,77.50
2022-11-27T22:29:25.979Z,77.50
2022-11-27T22:31:56.222Z,86.57
2022-11-27T22:34:24.860Z,86.07
2022-11-27T22:36:56.143Z,93.13
2022-11-27T22:39:24.816Z,81.83
2022-11-27T22:41:53.448Z,89.23
2022-11-27T22:44:22.175Z,68.40
2022-11-27T22:46:50.935Z,85.17
2022-11-27T22:49:21.093Z,80.63
2022-11-27T22:51:49.754Z,76.63
2022-11-27T22:54:18.850Z,70.53
2022-11-27T22:56:47.992Z,96.00
2022-11-27T22:59:34.119Z,70.80
2022-11-27T23:02:03.637Z,52.10
2022-11-27T23:04:34.186Z,83.27
2022-11-27T23:07:02.864Z,66.73
2022-11-27T23:09:31.719Z,66.80
2022-11-27T23:12:00.816Z,66.07
2022-11-27T23:14:29.491Z,83.53
2022-11-27T23:16:58.387Z,71.90
2022-11-27T23:19:27.134Z,69.50
2022-11-27T23:21:57.254Z,77.50
2022-11-27T23:24:25.943Z,72.00
2022-11-27T23:26:54.613Z,67.53
2022-11-27T23:29:23.280Z,72.47
2022-11-27T23:31:55.262Z,76.10
2022-11-27T23:34:24.067Z,62.67
2022-11-27T23:36:52.844Z,55.90
2022-11-27T23:39:22.878Z,62.93
2022-11-27T23:41:51.536Z,61.13
2022-11-27T23:44:20.870Z,73.30
2022-11-27T23:46:49.540Z,53.13
2022-11-27T23:49:18.742Z,67.93
2022-11-27T23:51:48.116Z,55.43
2022-11-27T23:54:17.911Z,53.17
2022-11-27T23:56:51.610Z,55.57
2022-11-27T23:59:20.432Z,56.13
